createdAt,value
2022-08-29T00:00:51.836Z,96088.13
2022-08-29T00:03:21.067Z,96091.69
2022-08-29T00:05:50.358Z,96076.88
2022-08-29T00:08:20.050Z,96082.75
2022-08-29T00:10:49.283Z,96069.72
2022-08-29T00:13:18.149Z,96072.94
2022-08-29T00:15:47.347Z,96072.25
2022-08-29T00:18:18.104Z,96072.38
2022-08-29T00:20:48.753Z,96071.75
2022-08-29T00:23:17.695Z,96068.34
2022-08-29T00:25:46.805Z,96067.88
2022-08-29T00:28:16.236Z,96061.72
2022-08-29T00:30:45.589Z,96062.22
2022-08-29T00:33:14.497Z,96066.88
2022-08-29T00:35:45.764Z,96062.56
2022-08-29T00:38:18.215Z,96060.66
2022-08-29T00:40:52.189Z,96059.44
2022-08-29T00:43:25.277Z,96061.28
2022-08-29T00:46:01.912Z,96054.00
2022-08-29T00:48:30.979Z,96051.75
2022-08-29T00:51:07.675Z,96049.00
2022-08-29T00:53:41.515Z,96051.75
2022-08-29T00:56:13.569Z,96053.03
2022-08-29T00:59:27.671Z,96052.66
2022-08-29T01:02:06.155Z,96051.19
2022-08-29T01:04:43.815Z,96043.97
2022-08-29T01:07:16.644Z,96037.13
2022-08-29T01:09:47.821Z,96047.53
2022-08-29T01:12:17.695Z,96039.38
2022-08-29T01:14:50.462Z,96047.16
2022-08-29T01:17:34.074Z,96037.03
2022-08-29T01:20:20.260Z,96034.56
2022-08-29T01:23:01.999Z,96036.25
2022-08-29T01:25:35.690Z,96036.81
2022-08-29T01:28:24.750Z,96032.41
2022-08-29T01:31:11.298Z,96032.06
2022-08-29T01:33:50.286Z,96033.19
2022-08-29T01:36:28.797Z,96034.75
2022-08-29T01:38:57.685Z,96026.31
2022-08-29T01:41:27.537Z,96017.28
2022-08-29T01:43:57.376Z,96028.69
2022-08-29T01:46:35.316Z,96008.38
2022-08-29T01:49:06.493Z,96013.59
2022-08-29T01:51:36.765Z,96012.50
2022-08-29T01:54:07.965Z,96012.22
2022-08-29T01:56:41.405Z,96013.41
2022-08-29T01:59:12.804Z,96012.00
2022-08-29T02:01:48.183Z,96007.38
2022-08-29T02:04:17.934Z,96001.53
2022-08-29T02:06:46.731Z,96008.78
2022-08-29T02:09:18.611Z,96003.84
2022-08-29T02:11:49.050Z,96000.03
2022-08-29T02:14:19.538Z,95995.03
2022-08-29T02:16:49.329Z,95983.88
2022-08-29T02:19:19.795Z,95983.44
2022-08-29T02:21:48.764Z,95988.00
2022-08-29T02:24:26.414Z,95982.13
2022-08-29T02:26:56.747Z,95972.78
2022-08-29T02:29:31.033Z,95971.66
2022-08-29T02:32:13.249Z,95960.50
2022-08-29T02:34:47.858Z,95951.47
2022-08-29T02:37:18.896Z,95944.69
2022-08-29T02:39:47.595Z,95935.47
2022-08-29T02:42:16.357Z,95948.63
2022-08-29T02:44:45.448Z,95943.56
2022-08-29T02:47:15.071Z,95941.44
2022-08-29T02:49:44.372Z,95930.53
2022-08-29T02:52:13.706Z,95930.84
2022-08-29T02:54:42.612Z,95931.13
2022-08-29T02:57:11.511Z,95923.03
2022-08-29T02:59:40.374Z,95928.88
2022-08-29T03:02:09.585Z,95921.56
2022-08-29T03:04:38.856Z,95928.88
2022-08-29T03:07:07.717Z,95931.84
2022-08-29T03:09:36.590Z,95932.78
2022-08-29T03:12:06.103Z,95926.94
2022-08-29T03:14:34.970Z,95932.56
2022-08-29T03:17:03.844Z,95918.97
2022-08-29T03:19:37.415Z,95913.94
2022-08-29T03:22:06.621Z,95912.31
2022-08-29T03:24:37.301Z,95903.09
2022-08-29T03:27:06.363Z,95906.47
2022-08-29T03:29:35.357Z,95897.28
2022-08-29T03:32:05.544Z,95899.97
2022-08-29T03:34:34.658Z,95890.75
2022-08-29T03:37:03.573Z,95887.97
2022-08-29T03:39:32.760Z,95880.22
2022-08-29T03:42:01.612Z,95886.44
2022-08-29T03:44:33.719Z,95890.81
2022-08-29T03:47:02.893Z,95890.56
2022-08-29T03:49:32.031Z,95880.78
2022-08-29T03:52:00.935Z,95889.72
2022-08-29T03:54:29.709Z,95871.66
2022-08-29T03:56:58.577Z,95862.53
2022-08-29T03:59:27.512Z,95865.03
2022-08-29T04:01:58.761Z,95859.06
2022-08-29T04:04:46.208Z,95856.53
2022-08-29T04:07:15.450Z,95851.16
2022-08-29T04:09:44.360Z,95849.19
2022-08-29T04:12:14.199Z,95848.91
2022-08-29T04:14:43.480Z,95843.53
2022-08-29T04:17:12.958Z,95859.31
2022-08-29T04:19:42.040Z,95847.84
2022-08-29T04:22:14.358Z,95845.13
2022-08-29T04:24:43.340Z,95847.84
2022-08-29T04:27:12.158Z,95844.41
2022-08-29T04:29:40.985Z,95841.69
2022-08-29T04:32:09.846Z,95835.50
2022-08-29T04:34:38.720Z,95834.69
2022-08-29T04:37:07.486Z,95833.94
2022-08-29T04:39:36.437Z,95827.03
2022-08-29T04:42:05.464Z,95823.22
2022-08-29T04:44:35.218Z,95818.91
2022-08-29T04:47:04.076Z,95825.41
2022-08-29T04:49:32.898Z,95815.28
2022-08-29T04:52:01.713Z,95820.22
2022-08-29T04:54:30.737Z,95807.94
2022-08-29T04:57:06.055Z,95811.44
2022-08-29T04:59:35.339Z,95820.03
2022-08-29T05:02:05.073Z,95813.50
2022-08-29T05:04:34.082Z,95799.25
2022-08-29T05:07:02.982Z,95805.88
2022-08-29T05:09:31.865Z,95786.25
2022-08-29T05:12:00.695Z,95804.09
2022-08-29T05:14:29.935Z,95793.00
2022-08-29T05:16:59.816Z,95779.97
2022-08-29T05:19:28.559Z,95769.56
2022-08-29T05:22:03.493Z,95778.56
2022-08-29T05:24:32.520Z,95772.44
2022-08-29T05:27:02.030Z,95774.78
2022-08-29T05:29:31.053Z,95777.13
2022-08-29T05:31:59.941Z,95762.84
2022-08-29T05:34:34.867Z,95755.19
2022-08-29T05:37:07.618Z,95767.56
2022-08-29T05:39:37.771Z,95761.00
2022-08-29T05:42:08.376Z,95760.59
2022-08-29T05:44:38.060Z,95753.28
2022-08-29T05:47:09.226Z,95756.00
2022-08-29T05:49:39.650Z,95747.91
2022-08-29T05:52:08.846Z,95745.63
2022-08-29T05:54:40.477Z,95736.47
2022-08-29T05:57:15.343Z,95753.88
2022-08-29T05:59:49.068Z,95750.47
2022-08-29T06:02:19.655Z,95741.63
2022-08-29T06:04:48.985Z,95725.81
2022-08-29T06:07:18.124Z,95727.28
2022-08-29T06:09:47.315Z,95725.34
2022-08-29T06:12:16.590Z,95723.50
2022-08-29T06:14:50.068Z,95713.50
2022-08-29T06:17:21.415Z,95699.28
2022-08-29T06:19:52.041Z,95701.34
2022-08-29T06:22:22.998Z,95704.03
2022-08-29T06:24:57.532Z,95688.22
2022-08-29T06:27:27.269Z,95684.72
2022-08-29T06:29:58.174Z,95679.22
2022-08-29T06:32:32.311Z,95671.13
2022-08-29T06:35:01.518Z,95673.81
2022-08-29T06:37:31.549Z,95664.56
2022-08-29T06:40:00.418Z,95665.81
2022-08-29T06:42:29.547Z,95658.19
2022-08-29T06:44:58.638Z,95653.97
2022-08-29T06:47:27.572Z,95659.41
2022-08-29T06:49:56.541Z,95648.63
2022-08-29T06:52:25.437Z,95654.00
2022-08-29T06:54:54.922Z,95647.06
2022-08-29T06:57:23.701Z,95649.00
2022-08-29T06:59:52.661Z,95654.41
2022-08-29T07:02:22.318Z,95646.66
2022-08-29T07:04:51.481Z,95648.16
2022-08-29T07:07:21.342Z,95627.31
2022-08-29T07:09:50.598Z,95626.16
2022-08-29T07:12:19.397Z,95623.06
2022-08-29T07:14:48.211Z,95634.25
2022-08-29T07:17:26.171Z,95633.06
2022-08-29T07:19:55.456Z,95619.56
2022-08-29T07:22:24.457Z,95616.13
2022-08-29T07:24:54.807Z,95616.13
2022-08-29T07:27:23.827Z,95602.63
2022-08-29T07:29:52.620Z,95599.16
2022-08-29T07:32:25.282Z,95592.25
2022-08-29T07:34:56.412Z,95594.56
2022-08-29T07:37:25.777Z,95585.69
2022-08-29T07:39:54.911Z,95582.59
2022-08-29T07:42:24.235Z,95588.75
2022-08-29T07:44:53.235Z,95587.22
2022-08-29T07:47:22.363Z,95584.13
2022-08-29T07:49:51.175Z,95582.94
2022-08-29T07:52:20.209Z,95587.22
2022-08-29T07:54:49.786Z,95579.09
2022-08-29T07:57:19.565Z,95582.19
2022-08-29T07:59:48.712Z,95577.94
2022-08-29T08:02:18.382Z,95577.94
2022-08-29T08:04:47.649Z,95574.00
2022-08-29T08:07:23.044Z,95572.06
2022-08-29T08:09:59.871Z,95575.50
2022-08-29T08:12:29.994Z,95569.31
2022-08-29T08:14:59.193Z,95565.41
2022-08-29T08:17:28.011Z,95569.63
2022-08-29T08:19:56.946Z,95553.44
2022-08-29T08:22:26.118Z,95550.38
2022-08-29T08:24:55.119Z,95547.31
2022-08-29T08:27:24.218Z,95542.69
2022-08-29T08:29:53.153Z,95537.28
2022-08-29T08:32:32.346Z,95531.94
2022-08-29T08:35:02.407Z,95534.63
2022-08-29T08:37:31.387Z,95530.41
2022-08-29T08:40:00.538Z,95525.44
2022-08-29T08:42:43.103Z,95522.31
2022-08-29T08:45:15.496Z,95514.63
2022-08-29T08:47:54.133Z,95523.47
2022-08-29T08:50:38.483Z,95513.41
2022-08-29T08:53:11.744Z,95516.50
2022-08-29T08:55:47.324Z,95515.72
2022-08-29T08:58:37.531Z,95505.31
2022-08-29T09:01:28.614Z,95505.31
2022-08-29T09:04:23.849Z,95491.78
2022-08-29T09:07:08.085Z,95496.41
2022-08-29T09:10:03.631Z,95490.59
2022-08-29T09:12:53.038Z,95480.97
2022-08-29T09:15:25.635Z,95475.19
2022-08-29T09:18:01.420Z,95469.44
2022-08-29T09:20:34.849Z,95458.28
2022-08-29T09:23:08.679Z,95457.09
2022-08-29T09:25:37.765Z,95461.38
2022-08-29T09:28:09.065Z,95467.53
2022-08-29T09:30:39.844Z,95467.16
2022-08-29T09:33:13.326Z,95445.97
2022-08-29T09:35:44.852Z,95440.22
2022-08-29T09:38:22.183Z,95445.97
2022-08-29T09:40:53.353Z,95434.06
2022-08-29T09:43:45.220Z,95439.81
2022-08-29T09:46:26.280Z,95424.41
2022-08-29T09:49:14.488Z,95421.34
2022-08-29T09:51:48.706Z,95409.38
2022-08-29T09:54:29.327Z,95409.78
2022-08-29T09:57:26.921Z,95402.09
2022-08-29T10:00:18.677Z,95403.28
2022-08-29T10:02:54.847Z,95395.56
2022-08-29T10:05:45.408Z,95384.78
2022-08-29T10:08:37.699Z,95394.41
2022-08-29T10:11:25.955Z,95371.25
2022-08-29T10:13:56.721Z,95363.53
2022-08-29T10:16:28.644Z,95374.34
2022-08-29T10:18:58.509Z,95377.81
2022-08-29T10:21:36.991Z,95371.63
2022-08-29T10:24:33.588Z,95366.63
2022-08-29T10:27:21.580Z,95355.81
2022-08-29T10:30:06.771Z,95349.63
2022-08-29T10:32:49.581Z,95353.88
2022-08-29T10:35:33.916Z,95339.22
2022-08-29T10:38:31.159Z,95324.16
2022-08-29T10:41:11.294Z,95327.22
2022-08-29T10:43:59.525Z,95321.81
2022-08-29T10:46:49.194Z,95314.09
2022-08-29T10:49:28.741Z,95324.13
2022-08-29T10:52:19.445Z,95287.88
2022-08-29T10:55:00.387Z,95310.22
2022-08-29T10:57:51.542Z,95289.78
2022-08-29T11:00:30.419Z,95302.16
2022-08-29T11:03:13.894Z,95291.00
2022-08-29T11:05:52.339Z,95287.16
2022-08-29T11:08:30.276Z,95280.22
2022-08-29T11:10:59.159Z,95265.56
2022-08-29T11:13:39.129Z,95270.59
2022-08-29T11:16:16.402Z,95261.75
2022-08-29T11:18:52.102Z,95274.44
2022-08-29T11:21:35.306Z,95248.97
2022-08-29T11:24:06.130Z,95245.88
2022-08-29T11:26:41.807Z,95246.22
2022-08-29T11:29:22.642Z,95238.09
2022-08-29T11:31:58.699Z,95231.91
2022-08-29T11:35:08.246Z,95204.44
2022-08-29T11:37:42.748Z,95197.06
2022-08-29T11:43:27.722Z,95191.97
2022-08-29T11:46:03.412Z,95195.81
2022-08-29T11:48:38.015Z,95206.63
2022-08-29T11:51:38.049Z,95183.06
2022-08-29T11:54:25.310Z,95186.91
2022-08-29T11:57:02.853Z,95186.13
2022-08-29T11:59:49.983Z,95176.84
2022-08-29T12:02:31.398Z,95169.47
2022-08-29T12:05:29.217Z,95173.31
2022-08-29T12:08:36.208Z,95171.34
2022-08-29T12:11:07.407Z,95157.44
2022-08-29T12:13:51.310Z,95156.66
2022-08-29T12:16:25.729Z,95152.41
2022-08-29T12:18:57.190Z,95150.84
2022-08-29T12:21:37.957Z,95146.16
2022-08-29T12:24:27.055Z,95148.88
2022-08-29T12:26:56.141Z,95150.03
2022-08-29T12:29:44.616Z,95138.50
2022-08-29T12:32:41.114Z,95128.56
2022-08-29T12:36:06.219Z,95114.81
2022-08-29T12:39:01.200Z,95106.78
2022-08-29T12:41:39.146Z,95107.94
2022-08-29T12:44:14.132Z,95110.31
2022-08-29T12:46:46.566Z,95104.56
2022-08-29T12:49:24.434Z,95109.97
2022-08-29T12:51:59.991Z,95096.88
2022-08-29T12:54:33.192Z,95093.03
2022-08-29T12:57:03.675Z,95084.56
2022-08-29T12:59:34.596Z,95088.06
2022-08-29T13:02:04.018Z,95089.63
2022-08-29T13:04:34.375Z,95086.19
2022-08-29T13:07:17.687Z,95060.78
2022-08-29T13:09:56.137Z,95065.75
2022-08-29T13:12:31.253Z,95071.59
2022-08-29T13:15:08.053Z,95057.72
2022-08-29T13:17:42.603Z,95063.53
2022-08-29T13:20:43.289Z,95044.25
2022-08-29T13:23:21.428Z,95048.53
2022-08-29T13:25:56.552Z,95031.94
2022-08-29T13:28:47.230Z,95036.59
2022-08-29T13:31:16.582Z,95042.34
2022-08-29T13:33:51.438Z,95023.84
2022-08-29T13:36:32.603Z,95028.47
2022-08-29T13:39:25.556Z,95021.53
2022-08-29T13:42:03.698Z,95026.59
2022-08-29T13:44:54.562Z,95008.47
2022-08-29T13:47:30.016Z,94988.06
2022-08-29T13:50:06.698Z,94986.88
2022-08-29T13:52:35.838Z,94982.59
2022-08-29T13:55:07.817Z,94988.81
2022-08-29T13:57:36.834Z,94975.31
2022-08-29T14:00:09.281Z,94959.16
2022-08-29T14:02:44.951Z,94953.72
2022-08-29T14:05:39.393Z,94953.72
2022-08-29T14:08:10.773Z,94948.31
2022-08-29T14:10:49.179Z,94952.94
2022-08-29T14:13:18.626Z,94924.81
2022-08-29T14:15:47.883Z,94929.44
2022-08-29T14:18:16.817Z,94906.31
2022-08-29T14:20:46.049Z,94906.72
2022-08-29T14:23:14.982Z,94887.81
2022-08-29T14:25:44.030Z,94895.91
2022-08-29T14:28:14.024Z,94892.41
2022-08-29T14:30:51.625Z,94912.03
2022-08-29T14:33:24.173Z,94900.47
2022-08-29T14:35:54.411Z,94900.47
2022-08-29T14:38:23.630Z,94887.75
2022-08-29T14:40:52.808Z,94883.81
2022-08-29T14:43:21.835Z,94883.72
2022-08-29T14:45:52.038Z,94885.66
2022-08-29T14:48:21.030Z,94886.06
2022-08-29T14:50:50.028Z,94872.50
2022-08-29T14:53:18.937Z,94875.94
2022-08-29T14:55:48.129Z,94991.25
2022-08-29T14:58:17.556Z,94996.69
2022-08-29T15:00:52.165Z,94999.25
2022-08-29T15:03:26.009Z,95008.78
2022-08-29T15:05:55.033Z,95002.38
2022-08-29T15:08:23.997Z,95024.72
2022-08-29T15:10:53.348Z,95046.66
2022-08-29T15:13:22.597Z,95063.56
2022-08-29T15:15:51.830Z,95083.94
2022-08-29T15:18:59.518Z,95092.41
2022-08-29T15:21:12.678Z,95080.84
2022-08-29T15:23:41.772Z,95097.75
2022-08-29T15:26:10.758Z,95101.16
2022-08-29T15:28:40.514Z,95113.00
2022-08-29T15:31:09.522Z,95124.09
2022-08-29T15:33:38.866Z,95150.16
2022-08-29T15:36:08.520Z,95144.31
2022-08-29T15:38:37.344Z,95136.50
2022-08-29T15:41:06.284Z,95144.47
2022-08-29T15:43:35.272Z,95168.50
2022-08-29T15:46:04.257Z,95181.88
2022-08-29T15:48:33.894Z,95180.19
2022-08-29T15:51:02.726Z,95168.22
2022-08-29T15:53:31.868Z,95176.59
2022-08-29T15:56:00.896Z,95160.00
2022-08-29T15:58:29.775Z,95216.72
2022-08-29T16:01:00.054Z,95226.31
2022-08-29T16:03:29.345Z,95222.47
2022-08-29T16:05:59.485Z,95228.53
2022-08-29T16:08:29.773Z,95253.41
2022-08-29T16:10:58.786Z,95252.78
2022-08-29T16:13:27.658Z,95256.06
2022-08-29T16:15:56.776Z,95281.19
2022-08-29T16:18:26.192Z,95281.81
2022-08-29T16:20:56.756Z,95289.31
2022-08-29T16:23:25.805Z,95296.53
2022-08-29T16:25:54.659Z,95305.72
2022-08-29T16:28:23.676Z,95328.63
2022-08-29T16:30:53.941Z,95331.91
2022-08-29T16:33:22.903Z,95335.53
2022-08-29T16:35:52.317Z,95360.94
2022-08-29T16:38:21.214Z,95364.50
2022-08-29T16:40:50.887Z,95373.53
2022-08-29T16:43:20.027Z,95390.16
2022-08-29T16:45:49.047Z,95391.84
2022-08-29T16:48:19.310Z,95400.44
2022-08-29T16:50:48.590Z,95405.22
2022-08-29T16:53:17.363Z,95402.03
2022-08-29T16:55:46.334Z,95407.22
2022-08-29T16:58:33.621Z,95412.78
2022-08-29T17:01:03.938Z,95421.78
2022-08-29T17:03:32.894Z,95430.75
2022-08-29T17:06:02.116Z,95438.53
2022-08-29T17:08:30.745Z,95431.72
2022-08-29T17:10:59.727Z,95446.81
2022-08-29T17:13:28.508Z,95457.41
2022-08-29T17:16:05.184Z,95467.31
2022-08-29T17:18:34.447Z,95465.25
2022-08-29T17:21:04.324Z,95480.78
2022-08-29T17:23:36.305Z,95481.72
2022-08-29T17:26:08.207Z,95507.00
2022-08-29T17:28:39.600Z,95507.50
2022-08-29T17:31:08.922Z,95522.88
2022-08-29T17:33:38.506Z,95534.09
2022-08-29T17:36:08.198Z,95549.44
2022-08-29T17:38:40.264Z,95536.16
2022-08-29T17:41:15.224Z,95553.97
2022-08-29T17:43:46.723Z,95543.53
2022-08-29T17:46:22.381Z,95559.84
2022-08-29T17:48:51.248Z,95553.69
2022-08-29T17:51:20.107Z,95569.06
2022-08-29T17:53:52.422Z,95569.63
2022-08-29T17:56:39.409Z,95583.34
2022-08-29T17:59:15.036Z,95591.22
2022-08-29T18:01:44.894Z,95597.38
2022-08-29T18:04:14.522Z,95588.47
2022-08-29T18:06:43.447Z,95620.84
2022-08-29T18:09:12.946Z,95616.16
2022-08-29T18:11:44.054Z,95621.63
2022-08-29T18:14:13.553Z,95631.44
2022-08-29T18:16:42.404Z,95630.00
2022-08-29T18:19:13.820Z,95648.00
2022-08-29T18:21:44.995Z,95648.13
2022-08-29T18:24:17.198Z,95658.88
2022-08-29T18:26:47.621Z,95659.75
2022-08-29T18:29:17.196Z,95672.06
2022-08-29T18:31:46.078Z,95683.59
2022-08-29T18:34:16.109Z,95687.69
2022-08-29T18:36:46.946Z,95690.13
2022-08-29T18:39:16.962Z,95700.03
2022-08-29T18:41:45.959Z,95708.69
2022-08-29T18:44:14.800Z,95702.22
2022-08-29T18:46:48.313Z,95703.59
2022-08-29T18:49:20.158Z,95708.94
2022-08-29T18:51:48.956Z,95727.94
2022-08-29T18:54:19.478Z,95743.00
2022-08-29T18:56:48.677Z,95738.00
2022-08-29T18:59:17.463Z,95752.88
2022-08-29T19:01:46.960Z,95749.19
2022-08-29T19:04:15.972Z,95759.88
2022-08-29T19:06:45.020Z,95760.06
2022-08-29T19:09:13.790Z,95768.50
2022-08-29T19:11:42.612Z,95784.72
2022-08-29T19:14:11.550Z,95789.25
2022-08-29T19:16:40.910Z,95806.53
2022-08-29T19:19:13.440Z,95811.88
2022-08-29T19:21:43.057Z,95802.97
2022-08-29T19:24:11.956Z,95827.72
2022-08-29T19:26:40.784Z,95837.13
2022-08-29T19:29:13.230Z,95845.78
2022-08-29T19:31:45.338Z,95849.03
2022-08-29T19:34:14.333Z,95861.38
2022-08-29T19:36:47.058Z,95864.03
2022-08-29T19:39:16.491Z,95881.50
2022-08-29T19:41:45.250Z,95874.78
2022-08-29T19:44:14.408Z,95883.69
2022-08-29T19:46:49.110Z,95874.41
2022-08-29T19:49:18.618Z,95892.28
2022-08-29T19:51:48.158Z,95900.91
2022-08-29T19:54:17.152Z,95900.59
2022-08-29T19:56:46.802Z,95917.75
2022-08-29T19:59:16.530Z,95922.41
2022-08-29T20:01:46.654Z,95925.22
2022-08-29T20:04:16.046Z,95924.72
2022-08-29T20:06:46.808Z,95938.97
2022-08-29T20:09:17.002Z,95941.88
2022-08-29T20:11:45.893Z,95959.72
2022-08-29T20:14:14.759Z,95965.06
2022-08-29T20:16:45.562Z,95956.13
2022-08-29T20:19:14.668Z,95957.38
2022-08-29T20:21:45.416Z,95961.63
2022-08-29T20:24:15.710Z,95962.13
2022-08-29T20:26:48.427Z,95969.22
2022-08-29T20:29:17.884Z,95967.50
2022-08-29T20:31:47.027Z,95959.81
2022-08-29T20:34:16.658Z,95971.47
2022-08-29T20:37:04.027Z,95976.22
2022-08-29T20:39:32.885Z,95983.16
2022-08-29T20:42:02.737Z,96004.34
2022-08-29T20:44:34.317Z,95999.34
2022-08-29T20:47:04.615Z,96015.16
2022-08-29T20:49:33.768Z,96016.72
2022-08-29T20:52:05.802Z,96016.59
2022-08-29T20:54:34.954Z,96025.41
2022-08-29T20:57:03.685Z,96035.31
2022-08-29T20:59:34.469Z,96045.34
2022-08-29T21:02:05.721Z,96042.72
2022-08-29T21:04:53.985Z,96057.16
2022-08-29T21:07:22.911Z,96058.72
2022-08-29T21:09:52.465Z,96066.72
2022-08-29T21:12:21.995Z,96067.81
2022-08-29T21:14:56.570Z,96063.09
2022-08-29T21:17:25.299Z,96079.53
2022-08-29T21:19:54.146Z,96064.66
2022-08-29T21:22:25.059Z,96072.94
2022-08-29T21:24:56.301Z,96071.09
2022-08-29T21:27:26.595Z,96075.00
2022-08-29T21:29:58.585Z,96069.84
2022-08-29T21:32:27.456Z,96089.72
2022-08-29T21:34:56.633Z,96095.69
2022-08-29T21:37:26.024Z,96087.38
2022-08-29T21:39:55.660Z,96103.03
2022-08-29T21:42:24.465Z,96103.03
2022-08-29T21:44:56.263Z,96107.88
2022-08-29T21:47:25.049Z,96100.38
2022-08-29T21:49:54.175Z,96109.13
2022-08-29T21:52:23.501Z,96100.38
2022-08-29T21:54:54.072Z,96099.28
2022-08-29T21:57:41.639Z,96106.63
2022-08-29T22:00:11.798Z,96112.59
2022-08-29T22:02:40.903Z,96110.06
2022-08-29T22:05:09.826Z,96119.81
2022-08-29T22:07:42.966Z,96126.41
2022-08-29T22:10:22.174Z,96135.16
2022-08-29T22:12:51.365Z,96129.81
2022-08-29T22:15:39.306Z,96138.31
2022-08-29T22:18:09.276Z,96132.66
2022-08-29T22:20:38.959Z,96140.00
2022-08-29T22:23:08.660Z,96148.16
2022-08-29T22:25:37.534Z,96140.94
2022-08-29T22:28:07.061Z,96142.81
2022-08-29T22:30:36.103Z,96143.59
2022-08-29T22:33:06.474Z,96148.28
2022-08-29T22:35:36.883Z,96146.88
2022-08-29T22:38:05.676Z,96147.81
2022-08-29T22:40:34.612Z,96160.47
2022-08-29T22:43:03.825Z,96163.00
2022-08-29T22:45:33.034Z,96168.78
2022-08-29T22:48:01.806Z,96176.94
2022-08-29T22:50:30.912Z,96177.44
2022-08-29T22:53:02.496Z,96171.81
2022-08-29T22:58:01.002Z,96189.38
2022-08-29T23:00:30.247Z,96187.66
2022-08-29T23:02:59.285Z,96203.63
2022-08-29T23:05:28.290Z,96211.97
2022-08-29T23:07:57.722Z,96212.91
2022-08-29T23:10:26.533Z,96213.53
2022-08-29T23:12:55.366Z,96219.97
2022-08-29T23:15:24.239Z,96222.94
2022-08-29T23:17:53.042Z,96229.19
2022-08-29T23:20:21.934Z,96225.91
2022-08-29T23:22:50.779Z,96235.00
2022-08-29T23:25:19.820Z,96234.19
2022-08-29T23:27:48.651Z,96246.75
2022-08-29T23:30:17.564Z,96243.94
2022-08-29T23:32:46.334Z,96243.59
2022-08-29T23:35:15.274Z,96247.50
2022-08-29T23:37:44.026Z,96238.41
2022-08-29T23:40:12.996Z,96241.38
2022-08-29T23:42:41.982Z,96248.09
2022-08-29T23:45:11.510Z,96243.84
2022-08-29T23:47:40.390Z,96243.81
2022-08-29T23:50:09.861Z,96244.75
2022-08-29T23:52:38.698Z,96246.16
2022-08-29T23:55:08.282Z,96248.00
2022-08-29T23:57:37.175Z,96240.28
